sensor_id;sensor_type;location;lat;lon;timestamp;P1;durP1;ratioP1;P2;durP2;ratioP2
18338;SDS011;9295;44.484;11.240;2023-11-21T00:00:15;73.53;;;46.47;;
18338;SDS011;9295;44.484;11.240;2023-11-21T00:02:45;65.50;;;46.63;;
18338;SDS011;9295;44.484;11.240;2023-11-21T00:05:14;67.47;;;46.43;;
18338;SDS011;9295;44.484;11.240;2023-11-21T00:07:44;70.07;;;46.20;;
18338;SDS011;9295;44.484;11.240;2023-11-21T00:10:13;68.43;;;46.70;;
18338;SDS011;9295;44.484;11.240;2023-11-21T00:12:45;68.27;;;47.60;;
18338;SDS011;9295;44.484;11.240;2023-11-21T00:15:15;68.40;;;47.13;;
18338;SDS011;9295;44.484;11.240;2023-11-21T00:17:44;71.00;;;44.60;;
18338;SDS011;9295;44.484;11.240;2023-11-21T00:20:13;74.30;;;45.57;;
18338;SDS011;9295;44.484;11.240;2023-11-21T00:22:42;66.10;;;45.33;;
18338;SDS011;9295;44.484;11.240;2023-11-21T00:25:11;73.20;;;47.47;;
18338;SDS011;9295;44.484;11.240;2023-11-21T00:27:42;70.23;;;47.23;;
18338;SDS011;9295;44.484;11.240;2023-11-21T00:30:13;74.57;;;48.83;;
18338;SDS011;9295;44.484;11.240;2023-11-21T00:32:42;70.63;;;48.00;;
18338;SDS011;9295;44.484;11.240;2023-11-21T01:05:25;80.70;;;49.10;;
18338;SDS011;9295;44.484;11.240;2023-11-21T01:07:54;77.43;;;50.67;;
18338;SDS011;9295;44.484;11.240;2023-11-21T01:10:22;75.37;;;50.50;;
18338;SDS011;9295;44.484;11.240;2023-11-21T01:12:51;85.10;;;51.93;;
18338;SDS011;9295;44.484;11.240;2023-11-21T01:15:20;77.03;;;52.07;;
18338;SDS011;9295;44.484;11.240;2023-11-21T01:17:48;76.23;;;49.43;;
18338;SDS011;9295;44.484;11.240;2023-11-21T01:20:17;76.60;;;52.23;;
18338;SDS011;9295;44.484;11.240;2023-11-21T01:22:47;82.70;;;52.77;;
18338;SDS011;9295;44.484;11.240;2023-11-21T01:25:16;82.57;;;48.63;;
18338;SDS011;9295;44.484;11.240;2023-11-21T01:27:45;64.53;;;42.87;;
18338;SDS011;9295;44.484;11.240;2023-11-21T01:30:13;60.50;;;39.10;;
18338;SDS011;9295;44.484;11.240;2023-11-21T01:32:43;61.03;;;39.70;;
18338;SDS011;9295;44.484;11.240;2023-11-21T01:35:11;73.37;;;40.27;;
18338;SDS011;9295;44.484;11.240;2023-11-21T01:37:40;61.50;;;37.77;;
18338;SDS011;9295;44.484;11.240;2023-11-21T01:40:11;61.00;;;39.13;;
18338;SDS011;9295;44.484;11.240;2023-11-21T01:42:41;66.07;;;40.07;;
18338;SDS011;9295;44.484;11.240;2023-11-21T01:45:11;58.60;;;38.73;;
18338;SDS011;9295;44.484;11.240;2023-11-21T01:47:41;58.40;;;39.80;;
18338;SDS011;9295;44.484;11.240;2023-11-21T01:50:14;62.53;;;41.97;;
18338;SDS011;9295;44.484;11.240;2023-11-21T01:52:45;67.20;;;44.93;;
18338;SDS011;9295;44.484;11.240;2023-11-21T01:55:15;63.27;;;42.40;;
18338;SDS011;9295;44.484;11.240;2023-11-21T01:57:51;66.77;;;45.57;;
18338;SDS011;9295;44.484;11.240;2023-11-21T02:00:19;72.30;;;43.90;;
18338;SDS011;9295;44.484;11.240;2023-11-21T02:02:48;68.23;;;43.90;;
18338;SDS011;9295;44.484;11.240;2023-11-21T02:05:18;68.37;;;43.20;;
18338;SDS011;9295;44.484;11.240;2023-11-21T02:07:48;63.53;;;43.97;;
18338;SDS011;9295;44.484;11.240;2023-11-21T02:10:20;68.60;;;45.43;;
18338;SDS011;9295;44.484;11.240;2023-11-21T02:12:51;64.80;;;44.40;;
18338;SDS011;9295;44.484;11.240;2023-11-21T02:15:20;73.50;;;44.47;;
18338;SDS011;9295;44.484;11.240;2023-11-21T02:17:50;66.40;;;43.97;;
18338;SDS011;9295;44.484;11.240;2023-11-21T02:20:21;66.13;;;44.60;;
18338;SDS011;9295;44.484;11.240;2023-11-21T02:22:54;68.93;;;45.20;;
18338;SDS011;9295;44.484;11.240;2023-11-21T02:25:26;59.63;;;40.63;;
18338;SDS011;9295;44.484;11.240;2023-11-21T02:27:56;65.87;;;44.77;;
18338;SDS011;9295;44.484;11.240;2023-11-21T02:30:26;67.90;;;42.20;;
18338;SDS011;9295;44.484;11.240;2023-11-21T02:32:55;68.43;;;42.60;;
18338;SDS011;9295;44.484;11.240;2023-11-21T02:35:25;72.07;;;43.87;;
18338;SDS011;9295;44.484;11.240;2023-11-21T02:37:55;68.13;;;46.10;;
18338;SDS011;9295;44.484;11.240;2023-11-21T02:40:24;73.30;;;45.43;;
18338;SDS011;9295;44.484;11.240;2023-11-21T02:42:54;67.13;;;44.77;;
18338;SDS011;9295;44.484;11.240;2023-11-21T02:45:26;71.30;;;48.57;;
18338;SDS011;9295;44.484;11.240;2023-11-21T02:47:55;63.27;;;46.70;;
18338;SDS011;9295;44.484;11.240;2023-11-21T02:50:25;69.70;;;45.50;;
18338;SDS011;9295;44.484;11.240;2023-11-21T02:52:56;73.50;;;46.27;;
18338;SDS011;9295;44.484;11.240;2023-11-21T02:55:27;70.20;;;45.20;;
18338;SDS011;9295;44.484;11.240;2023-11-21T02:57:56;65.47;;;44.13;;
18338;SDS011;9295;44.484;11.240;2023-11-21T03:00:24;65.97;;;44.33;;
18338;SDS011;9295;44.484;11.240;2023-11-21T03:02:54;65.53;;;44.10;;
18338;SDS011;9295;44.484;11.240;2023-11-21T03:05:25;73.90;;;48.87;;
18338;SDS011;9295;44.484;11.240;2023-11-21T03:07:57;83.80;;;48.43;;
18338;SDS011;9295;44.484;11.240;2023-11-21T03:10:26;63.40;;;44.87;;
18338;SDS011;9295;44.484;11.240;2023-11-21T03:12:55;74.33;;;46.27;;
18338;SDS011;9295;44.484;11.240;2023-11-21T03:15:24;72.53;;;48.07;;
18338;SDS011;9295;44.484;11.240;2023-11-21T03:17:53;74.53;;;50.60;;
18338;SDS011;9295;44.484;11.240;2023-11-21T03:20:21;81.90;;;53.03;;
18338;SDS011;9295;44.484;11.240;2023-11-21T03:22:50;79.87;;;49.77;;
18338;SDS011;9295;44.484;11.240;2023-11-21T03:25:21;75.17;;;48.10;;
18338;SDS011;9295;44.484;11.240;2023-11-21T03:27:51;70.67;;;48.87;;
18338;SDS011;9295;44.484;11.240;2023-11-21T03:30:20;79.90;;;49.73;;
18338;SDS011;9295;44.484;11.240;2023-11-21T03:32:48;80.33;;;48.77;;
18338;SDS011;9295;44.484;11.240;2023-11-21T03:35:17;72.73;;;49.10;;
18338;SDS011;9295;44.484;11.240;2023-11-21T03:37:47;79.47;;;50.13;;
18338;SDS011;9295;44.484;11.240;2023-11-21T03:40:16;70.07;;;46.17;;
18338;SDS011;9295;44.484;11.240;2023-11-21T03:42:46;73.63;;;48.67;;
18338;SDS011;9295;44.484;11.240;2023-11-21T03:45:15;71.23;;;47.93;;
18338;SDS011;9295;44.484;11.240;2023-11-21T03:47:43;71.67;;;47.23;;
18338;SDS011;9295;44.484;11.240;2023-11-21T03:50:12;78.73;;;48.57;;
18338;SDS011;9295;44.484;11.240;2023-11-21T03:52:43;80.70;;;48.07;;
18338;SDS011;9295;44.484;11.240;2023-11-21T03:55:12;67.27;;;48.10;;
18338;SDS011;9295;44.484;11.240;2023-11-21T03:57:42;66.47;;;45.67;;
18338;SDS011;9295;44.484;11.240;2023-11-21T04:00:12;66.07;;;47.90;;
18338;SDS011;9295;44.484;11.240;2023-11-21T04:02:41;68.00;;;47.83;;
18338;SDS011;9295;44.484;11.240;2023-11-21T04:05:10;77.60;;;47.10;;
18338;SDS011;9295;44.484;11.240;2023-11-21T04:07:39;76.30;;;49.27;;
18338;SDS011;9295;44.484;11.240;2023-11-21T04:10:08;71.87;;;50.47;;
18338;SDS011;9295;44.484;11.240;2023-11-21T04:12:39;76.20;;;49.27;;
18338;SDS011;9295;44.484;11.240;2023-11-21T04:15:08;75.53;;;51.50;;
18338;SDS011;9295;44.484;11.240;2023-11-21T04:17:39;68.93;;;50.30;;
18338;SDS011;9295;44.484;11.240;2023-11-21T04:20:08;74.87;;;50.67;;
18338;SDS011;9295;44.484;11.240;2023-11-21T04:22:37;76.37;;;49.87;;
18338;SDS011;9295;44.484;11.240;2023-11-21T04:25:11;77.47;;;50.27;;
18338;SDS011;9295;44.484;11.240;2023-11-21T04:27:43;78.30;;;47.93;;
18338;SDS011;9295;44.484;11.240;2023-11-21T04:30:13;79.13;;;52.43;;
18338;SDS011;9295;44.484;11.240;2023-11-21T04:32:43;79.50;;;51.20;;
18338;SDS011;9295;44.484;11.240;2023-11-21T04:35:12;74.90;;;47.90;;
18338;SDS011;9295;44.484;11.240;2023-11-21T04:37:41;79.57;;;50.93;;
18338;SDS011;9295;44.484;11.240;2023-11-21T04:40:10;75.70;;;50.50;;
18338;SDS011;9295;44.484;11.240;2023-11-21T04:42:39;80.50;;;54.10;;
18338;SDS011;9295;44.484;11.240;2023-11-21T04:45:08;75.07;;;50.70;;
18338;SDS011;9295;44.484;11.240;2023-11-21T04:47:39;73.77;;;52.00;;
18338;SDS011;9295;44.484;11.240;2023-11-21T04:50:10;74.37;;;50.23;;
18338;SDS011;9295;44.484;11.240;2023-11-21T04:52:38;81.03;;;51.83;;
18338;SDS011;9295;44.484;11.240;2023-11-21T04:55:07;74.13;;;48.80;;
18338;SDS011;9295;44.484;11.240;2023-11-21T04:57:38;78.33;;;49.83;;
18338;SDS011;9295;44.484;11.240;2023-11-21T05:00:09;79.47;;;50.70;;
18338;SDS011;9295;44.484;11.240;2023-11-21T05:02:39;73.17;;;48.80;;
18338;SDS011;9295;44.484;11.240;2023-11-21T05:05:10;77.73;;;50.30;;
18338;SDS011;9295;44.484;11.240;2023-11-21T05:07:39;79.37;;;49.17;;
18338;SDS011;9295;44.484;11.240;2023-11-21T05:10:09;82.87;;;52.23;;
18338;SDS011;9295;44.484;11.240;2023-11-21T05:12:41;78.87;;;50.30;;
18338;SDS011;9295;44.484;11.240;2023-11-21T05:15:12;86.50;;;49.20;;
18338;SDS011;9295;44.484;11.240;2023-11-21T05:17:43;88.20;;;49.20;;
18338;SDS011;9295;44.484;11.240;2023-11-21T05:20:14;77.63;;;48.93;;
18338;SDS011;9295;44.484;11.240;2023-11-21T05:22:47;80.27;;;50.70;;
18338;SDS011;9295;44.484;11.240;2023-11-21T05:25:16;77.87;;;52.00;;
18338;SDS011;9295;44.484;11.240;2023-11-21T05:27:45;80.40;;;50.17;;
18338;SDS011;9295;44.484;11.240;2023-11-21T05:30:14;73.87;;;49.43;;
18338;SDS011;9295;44.484;11.240;2023-11-21T05:32:43;82.20;;;50.97;;
18338;SDS011;9295;44.484;11.240;2023-11-21T05:35:15;79.07;;;51.10;;
18338;SDS011;9295;44.484;11.240;2023-11-21T05:37:44;78.07;;;51.47;;
18338;SDS011;9295;44.484;11.240;2023-11-21T05:40:14;78.87;;;50.67;;
18338;SDS011;9295;44.484;11.240;2023-11-21T05:42:43;79.07;;;51.07;;
18338;SDS011;9295;44.484;11.240;2023-11-21T05:45:12;85.00;;;52.77;;
18338;SDS011;9295;44.484;11.240;2023-11-21T05:47:42;74.30;;;49.40;;
18338;SDS011;9295;44.484;11.240;2023-11-21T05:50:15;86.00;;;49.70;;
18338;SDS011;9295;44.484;11.240;2023-11-21T05:52:45;76.70;;;51.10;;
18338;SDS011;9295;44.484;11.240;2023-11-21T05:55:15;70.67;;;49.17;;
18338;SDS011;9295;44.484;11.240;2023-11-21T05:57:44;80.80;;;50.07;;
18338;SDS011;9295;44.484;11.240;2023-11-21T06:00:13;74.17;;;48.67;;
18338;SDS011;9295;44.484;11.240;2023-11-21T06:02:47;79.10;;;51.27;;
18338;SDS011;9295;44.484;11.240;2023-11-21T06:05:21;77.13;;;49.10;;
18338;SDS011;9295;44.484;11.240;2023-11-21T06:07:52;79.27;;;53.37;;
18338;SDS011;9295;44.484;11.240;2023-11-21T06:10:23;83.43;;;51.50;;
18338;SDS011;9295;44.484;11.240;2023-11-21T06:12:52;86.10;;;52.40;;
18338;SDS011;9295;44.484;11.240;2023-11-21T06:15:21;91.57;;;50.60;;
18338;SDS011;9295;44.484;11.240;2023-11-21T06:17:50;81.13;;;49.13;;
18338;SDS011;9295;44.484;11.240;2023-11-21T06:20:21;79.27;;;49.53;;
18338;SDS011;9295;44.484;11.240;2023-11-21T06:22:50;84.67;;;50.70;;
18338;SDS011;9295;44.484;11.240;2023-11-21T06:25:19;84.20;;;51.40;;
18338;SDS011;9295;44.484;11.240;2023-11-21T06:27:48;86.50;;;49.43;;
18338;SDS011;9295;44.484;11.240;2023-11-21T06:30:18;78.73;;;51.07;;
18338;SDS011;9295;44.484;11.240;2023-11-21T06:32:48;78.43;;;50.80;;
18338;SDS011;9295;44.484;11.240;2023-11-21T06:35:18;79.33;;;50.30;;
18338;SDS011;9295;44.484;11.240;2023-11-21T06:37:48;79.10;;;51.53;;
18338;SDS011;9295;44.484;11.240;2023-11-21T06:40:18;76.90;;;49.10;;
18338;SDS011;9295;44.484;11.240;2023-11-21T06:42:48;80.00;;;50.10;;
18338;SDS011;9295;44.484;11.240;2023-11-21T06:45:17;81.43;;;53.17;;
18338;SDS011;9295;44.484;11.240;2023-11-21T06:47:47;79.30;;;50.17;;
18338;SDS011;9295;44.484;11.240;2023-11-21T06:50:17;77.10;;;48.83;;
18338;SDS011;9295;44.484;11.240;2023-11-21T06:52:45;77.30;;;48.30;;
18338;SDS011;9295;44.484;11.240;2023-11-21T06:55:16;77.53;;;50.47;;
18338;SDS011;9295;44.484;11.240;2023-11-21T06:57:45;74.23;;;50.07;;
18338;SDS011;9295;44.484;11.240;2023-11-21T07:00:15;82.23;;;50.27;;
18338;SDS011;9295;44.484;11.240;2023-11-21T07:02:45;83.80;;;52.07;;
18338;SDS011;9295;44.484;11.240;2023-11-21T07:05:14;87.93;;;52.40;;
18338;SDS011;9295;44.484;11.240;2023-11-21T07:07:49;84.30;;;51.70;;
18338;SDS011;9295;44.484;11.240;2023-11-21T07:10:21;76.37;;;52.50;;
18338;SDS011;9295;44.484;11.240;2023-11-21T07:12:49;83.83;;;51.57;;
18338;SDS011;9295;44.484;11.240;2023-11-21T07:15:18;77.03;;;50.07;;
18338;SDS011;9295;44.484;11.240;2023-11-21T07:17:47;80.23;;;50.63;;
18338;SDS011;9295;44.484;11.240;2023-11-21T07:20:16;83.17;;;53.03;;
18338;SDS011;9295;44.484;11.240;2023-11-21T07:22:45;82.73;;;52.20;;
18338;SDS011;9295;44.484;11.240;2023-11-21T07:25:15;77.10;;;50.37;;
18338;SDS011;9295;44.484;11.240;2023-11-21T07:27:44;80.90;;;52.20;;
18338;SDS011;9295;44.484;11.240;2023-11-21T07:30:12;89.73;;;54.87;;
18338;SDS011;9295;44.484;11.240;2023-11-21T07:32:41;92.03;;;56.07;;
18338;SDS011;9295;44.484;11.240;2023-11-21T07:35:11;89.10;;;53.80;;
18338;SDS011;9295;44.484;11.240;2023-11-21T07:37:40;83.17;;;51.40;;
18338;SDS011;9295;44.484;11.240;2023-11-21T07:40:10;86.00;;;51.00;;
18338;SDS011;9295;44.484;11.240;2023-11-21T07:42:41;98.10;;;56.07;;
18338;SDS011;9295;44.484;11.240;2023-11-21T07:45:10;87.37;;;54.23;;
18338;SDS011;9295;44.484;11.240;2023-11-21T07:47:39;124.83;;;62.00;;
18338;SDS011;9295;44.484;11.240;2023-11-21T07:50:08;103.20;;;55.93;;
18338;SDS011;9295;44.484;11.240;2023-11-21T07:52:37;105.77;;;54.23;;
18338;SDS011;9295;44.484;11.240;2023-11-21T07:55:06;95.90;;;54.50;;
18338;SDS011;9295;44.484;11.240;2023-11-21T07:57:35;88.77;;;53.67;;
18338;SDS011;9295;44.484;11.240;2023-11-21T08:00:06;103.50;;;56.30;;
18338;SDS011;9295;44.484;11.240;2023-11-21T08:02:39;101.77;;;59.17;;
18338;SDS011;9295;44.484;11.240;2023-11-21T08:05:10;115.53;;;61.43;;
18338;SDS011;9295;44.484;11.240;2023-11-21T08:12:50;105.97;;;56.43;;
18338;SDS011;9295;44.484;11.240;2023-11-21T08:15:21;105.57;;;55.70;;
18338;SDS011;9295;44.484;11.240;2023-11-21T08:17:50;106.10;;;56.67;;
18338;SDS011;9295;44.484;11.240;2023-11-21T08:20:19;92.20;;;53.17;;
18338;SDS011;9295;44.484;11.240;2023-11-21T08:22:49;110.07;;;60.37;;
18338;SDS011;9295;44.484;11.240;2023-11-21T08:25:19;99.30;;;56.53;;
18338;SDS011;9295;44.484;11.240;2023-11-21T08:27:49;101.23;;;57.10;;
18338;SDS011;9295;44.484;11.240;2023-11-21T08:30:17;95.27;;;56.50;;
18338;SDS011;9295;44.484;11.240;2023-11-21T08:32:50;116.70;;;57.80;;
18338;SDS011;9295;44.484;11.240;2023-11-21T08:35:20;99.17;;;56.90;;
18338;SDS011;9295;44.484;11.240;2023-11-21T08:37:50;106.33;;;59.13;;
18338;SDS011;9295;44.484;11.240;2023-11-21T08:40:20;102.70;;;59.83;;
18338;SDS011;9295;44.484;11.240;2023-11-21T08:42:49;106.37;;;63.03;;
18338;SDS011;9295;44.484;11.240;2023-11-21T08:45:19;109.30;;;65.13;;
18338;SDS011;9295;44.484;11.240;2023-11-21T08:47:53;112.10;;;68.80;;
18338;SDS011;9295;44.484;11.240;2023-11-21T08:50:22;111.90;;;71.73;;
18338;SDS011;9295;44.484;11.240;2023-11-21T08:52:50;110.57;;;73.90;;
18338;SDS011;9295;44.484;11.240;2023-11-21T08:55:19;135.87;;;82.80;;
18338;SDS011;9295;44.484;11.240;2023-11-21T08:57:48;128.63;;;85.57;;
18338;SDS011;9295;44.484;11.240;2023-11-21T09:00:17;129.77;;;88.00;;
18338;SDS011;9295;44.484;11.240;2023-11-21T09:02:46;139.43;;;88.87;;
18338;SDS011;9295;44.484;11.240;2023-11-21T09:05:19;147.77;;;92.17;;
18338;SDS011;9295;44.484;11.240;2023-11-21T09:07:48;148.33;;;92.40;;
18338;SDS011;9295;44.484;11.240;2023-11-21T09:10:16;173.23;;;90.33;;
18338;SDS011;9295;44.484;11.240;2023-11-21T09:12:46;141.97;;;93.17;;
18338;SDS011;9295;44.484;11.240;2023-11-21T09:15:14;136.27;;;88.90;;
18338;SDS011;9295;44.484;11.240;2023-11-21T09:17:43;138.37;;;91.27;;
18338;SDS011;9295;44.484;11.240;2023-11-21T09:20:12;143.50;;;89.90;;
18338;SDS011;9295;44.484;11.240;2023-11-21T09:22:44;154.63;;;94.10;;
18338;SDS011;9295;44.484;11.240;2023-11-21T09:25:15;147.53;;;99.40;;
18338;SDS011;9295;44.484;11.240;2023-11-21T09:27:44;148.97;;;93.33;;
18338;SDS011;9295;44.484;11.240;2023-11-21T09:30:13;140.83;;;91.37;;
18338;SDS011;9295;44.484;11.240;2023-11-21T09:32:43;143.40;;;92.30;;
18338;SDS011;9295;44.484;11.240;2023-11-21T09:35:12;148.40;;;94.20;;
18338;SDS011;9295;44.484;11.240;2023-11-21T09:37:44;154.93;;;97.73;;
18338;SDS011;9295;44.484;11.240;2023-11-21T09:40:21;147.33;;;94.47;;
18338;SDS011;9295;44.484;11.240;2023-11-21T09:42:52;142.50;;;96.40;;
18338;SDS011;9295;44.484;11.240;2023-11-21T09:45:27;152.57;;;95.10;;
18338;SDS011;9295;44.484;11.240;2023-11-21T09:47:58;150.17;;;100.07;;
18338;SDS011;9295;44.484;11.240;2023-11-21T09:50:26;162.93;;;102.43;;
18338;SDS011;9295;44.484;11.240;2023-11-21T09:53:01;158.53;;;101.83;;
18338;SDS011;9295;44.484;11.240;2023-11-21T09:55:44;149.63;;;97.90;;
18338;SDS011;9295;44.484;11.240;2023-11-21T09:58:17;168.83;;;103.57;;
18338;SDS011;9295;44.484;11.240;2023-11-21T10:00:46;166.47;;;103.20;;
18338;SDS011;9295;44.484;11.240;2023-11-21T10:03:17;160.87;;;99.90;;
18338;SDS011;9295;44.484;11.240;2023-11-21T10:05:46;158.80;;;97.97;;
18338;SDS011;9295;44.484;11.240;2023-11-21T10:08:19;158.37;;;98.27;;
18338;SDS011;9295;44.484;11.240;2023-11-21T10:10:51;165.20;;;99.57;;
18338;SDS011;9295;44.484;11.240;2023-11-21T10:13:23;152.70;;;95.17;;
18338;SDS011;9295;44.484;11.240;2023-11-21T10:15:53;155.50;;;93.90;;
18338;SDS011;9295;44.484;11.240;2023-11-21T10:18:21;146.97;;;94.50;;
18338;SDS011;9295;44.484;11.240;2023-11-21T10:20:53;158.20;;;94.90;;
18338;SDS011;9295;44.484;11.240;2023-11-21T10:23:24;151.40;;;94.33;;
18338;SDS011;9295;44.484;11.240;2023-11-21T10:25:53;153.63;;;96.97;;
18338;SDS011;9295;44.484;11.240;2023-11-21T10:28:28;157.70;;;92.63;;
18338;SDS011;9295;44.484;11.240;2023-11-21T10:30:56;149.67;;;88.60;;
18338;SDS011;9295;44.484;11.240;2023-11-21T10:33:27;142.80;;;84.50;;
18338;SDS011;9295;44.484;11.240;2023-11-21T10:35:56;129.50;;;76.00;;
18338;SDS011;9295;44.484;11.240;2023-11-21T10:38:27;119.20;;;69.40;;
18338;SDS011;9295;44.484;11.240;2023-11-21T10:41:04;119.80;;;67.37;;
18338;SDS011;9295;44.484;11.240;2023-11-21T10:43:38;107.97;;;61.23;;
18338;SDS011;9295;44.484;11.240;2023-11-21T10:46:06;112.57;;;62.93;;
18338;SDS011;9295;44.484;11.240;2023-11-21T10:48:35;91.73;;;53.33;;
18338;SDS011;9295;44.484;11.240;2023-11-21T10:51:06;80.47;;;49.90;;
18338;SDS011;9295;44.484;11.240;2023-11-21T10:53:41;81.63;;;49.67;;
18338;SDS011;9295;44.484;11.240;2023-11-21T10:56:13;72.33;;;45.50;;
18338;SDS011;9295;44.484;11.240;2023-11-21T10:58:44;72.87;;;46.73;;
18338;SDS011;9295;44.484;11.240;2023-11-21T11:01:13;80.00;;;46.80;;
18338;SDS011;9295;44.484;11.240;2023-11-21T11:03:47;90.07;;;50.30;;
18338;SDS011;9295;44.484;11.240;2023-11-21T11:06:17;74.77;;;45.83;;
18338;SDS011;9295;44.484;11.240;2023-11-21T11:08:47;78.30;;;47.47;;
18338;SDS011;9295;44.484;11.240;2023-11-21T11:11:19;77.30;;;47.97;;
18338;SDS011;9295;44.484;11.240;2023-11-21T11:13:49;75.90;;;46.47;;
18338;SDS011;9295;44.484;11.240;2023-11-21T11:16:23;78.70;;;47.73;;
18338;SDS011;9295;44.484;11.240;2023-11-21T11:18:52;85.53;;;47.37;;
18338;SDS011;9295;44.484;11.240;2023-11-21T11:21:25;92.80;;;55.00;;
18338;SDS011;9295;44.484;11.240;2023-11-21T11:24:09;78.13;;;45.40;;
18338;SDS011;9295;44.484;11.240;2023-11-21T11:27:03;71.90;;;43.83;;
18338;SDS011;9295;44.484;11.240;2023-11-21T11:29:42;70.90;;;43.80;;
18338;SDS011;9295;44.484;11.240;2023-11-21T11:32:20;66.20;;;43.07;;
18338;SDS011;9295;44.484;11.240;2023-11-21T11:34:59;73.50;;;45.60;;
18338;SDS011;9295;44.484;11.240;2023-11-21T11:37:35;72.37;;;44.13;;
18338;SDS011;9295;44.484;11.240;2023-11-21T11:40:07;68.20;;;44.33;;
18338;SDS011;9295;44.484;11.240;2023-11-21T11:42:38;67.33;;;44.30;;
18338;SDS011;9295;44.484;11.240;2023-11-21T11:45:17;71.17;;;44.20;;
18338;SDS011;9295;44.484;11.240;2023-11-21T11:47:47;71.07;;;44.47;;
18338;SDS011;9295;44.484;11.240;2023-11-21T11:50:17;71.53;;;45.47;;
18338;SDS011;9295;44.484;11.240;2023-11-21T11:52:47;65.80;;;41.87;;
18338;SDS011;9295;44.484;11.240;2023-11-21T11:55:19;63.87;;;40.77;;
18338;SDS011;9295;44.484;11.240;2023-11-21T11:57:49;66.27;;;41.03;;
18338;SDS011;9295;44.484;11.240;2023-11-21T12:00:20;65.77;;;42.13;;
18338;SDS011;9295;44.484;11.240;2023-11-21T12:02:52;67.93;;;41.63;;
18338;SDS011;9295;44.484;11.240;2023-11-21T12:05:24;68.70;;;41.00;;
18338;SDS011;9295;44.484;11.240;2023-11-21T12:07:54;58.73;;;39.00;;
18338;SDS011;9295;44.484;11.240;2023-11-21T12:10:27;57.87;;;39.10;;
18338;SDS011;9295;44.484;11.240;2023-11-21T12:12:57;64.63;;;41.47;;
18338;SDS011;9295;44.484;11.240;2023-11-21T12:15:26;67.87;;;42.53;;
18338;SDS011;9295;44.484;11.240;2023-11-21T12:17:57;68.73;;;42.47;;
18338;SDS011;9295;44.484;11.240;2023-11-21T12:20:30;68.30;;;42.87;;
18338;SDS011;9295;44.484;11.240;2023-11-21T12:23:05;72.93;;;47.30;;
18338;SDS011;9295;44.484;11.240;2023-11-21T12:25:37;69.20;;;43.10;;
18338;SDS011;9295;44.484;11.240;2023-11-21T12:28:09;67.23;;;41.37;;
18338;SDS011;9295;44.484;11.240;2023-11-21T12:30:39;61.53;;;39.30;;
18338;SDS011;9295;44.484;11.240;2023-11-21T12:33:07;63.40;;;39.90;;
18338;SDS011;9295;44.484;11.240;2023-11-21T12:35:37;65.07;;;41.13;;
18338;SDS011;9295;44.484;11.240;2023-11-21T12:38:06;62.90;;;40.67;;
18338;SDS011;9295;44.484;11.240;2023-11-21T12:40:37;74.07;;;42.70;;
18338;SDS011;9295;44.484;11.240;2023-11-21T12:43:06;72.17;;;44.17;;
18338;SDS011;9295;44.484;11.240;2023-11-21T12:45:36;71.27;;;44.60;;
18338;SDS011;9295;44.484;11.240;2023-11-21T12:48:05;70.97;;;45.30;;
18338;SDS011;9295;44.484;11.240;2023-11-21T12:50:36;77.07;;;46.70;;
18338;SDS011;9295;44.484;11.240;2023-11-21T12:53:05;70.17;;;43.00;;
18338;SDS011;9295;44.484;11.240;2023-11-21T12:55:38;66.10;;;43.37;;
18338;SDS011;9295;44.484;11.240;2023-11-21T12:58:09;65.17;;;41.80;;
18338;SDS011;9295;44.484;11.240;2023-11-21T13:00:40;80.00;;;44.53;;
18338;SDS011;9295;44.484;11.240;2023-11-21T13:03:11;75.80;;;46.67;;
18338;SDS011;9295;44.484;11.240;2023-11-21T13:05:46;81.00;;;47.73;;
18338;SDS011;9295;44.484;11.240;2023-11-21T13:08:19;67.20;;;44.47;;
18338;SDS011;9295;44.484;11.240;2023-11-21T13:10:52;69.63;;;44.33;;
18338;SDS011;9295;44.484;11.240;2023-11-21T13:13:24;78.13;;;46.40;;
18338;SDS011;9295;44.484;11.240;2023-11-21T13:15:55;72.80;;;44.47;;
18338;SDS011;9295;44.484;11.240;2023-11-21T13:18:28;70.73;;;45.37;;
18338;SDS011;9295;44.484;11.240;2023-11-21T13:20:58;65.40;;;41.07;;
18338;SDS011;9295;44.484;11.240;2023-11-21T13:23:27;63.57;;;41.57;;
18338;SDS011;9295;44.484;11.240;2023-11-21T13:25:58;73.63;;;42.70;;
18338;SDS011;9295;44.484;11.240;2023-11-21T13:28:33;66.83;;;44.30;;
18338;SDS011;9295;44.484;11.240;2023-11-21T13:31:03;72.50;;;43.47;;
18338;SDS011;9295;44.484;11.240;2023-11-21T13:33:48;73.60;;;46.10;;
18338;SDS011;9295;44.484;11.240;2023-11-21T13:36:23;71.07;;;43.93;;
18338;SDS011;9295;44.484;11.240;2023-11-21T13:38:52;68.50;;;44.23;;
18338;SDS011;9295;44.484;11.240;2023-11-21T13:41:27;76.83;;;46.60;;
18338;SDS011;9295;44.484;11.240;2023-11-21T13:43:58;75.23;;;47.30;;
18338;SDS011;9295;44.484;11.240;2023-11-21T13:46:35;74.77;;;47.90;;
18338;SDS011;9295;44.484;11.240;2023-11-21T13:49:06;75.83;;;47.50;;
18338;SDS011;9295;44.484;11.240;2023-11-21T13:51:37;80.97;;;47.67;;
18338;SDS011;9295;44.484;11.240;2023-11-21T13:54:12;79.43;;;47.80;;
18338;SDS011;9295;44.484;11.240;2023-11-21T13:56:45;70.57;;;44.27;;
18338;SDS011;9295;44.484;11.240;2023-11-21T13:59:15;73.30;;;45.27;;
18338;SDS011;9295;44.484;11.240;2023-11-21T14:01:49;67.10;;;42.40;;
18338;SDS011;9295;44.484;11.240;2023-11-21T14:04:23;70.30;;;43.97;;
18338;SDS011;9295;44.484;11.240;2023-11-21T14:07:15;76.07;;;47.80;;
18338;SDS011;9295;44.484;11.240;2023-11-21T14:10:03;81.43;;;48.47;;
18338;SDS011;9295;44.484;11.240;2023-11-21T14:12:35;76.00;;;48.07;;
18338;SDS011;9295;44.484;11.240;2023-11-21T14:15:10;82.70;;;50.07;;
18338;SDS011;9295;44.484;11.240;2023-11-21T14:17:46;78.57;;;49.83;;
18338;SDS011;9295;44.484;11.240;2023-11-21T14:20:17;76.60;;;46.93;;
18338;SDS011;9295;44.484;11.240;2023-11-21T14:22:48;65.97;;;46.30;;
18338;SDS011;9295;44.484;11.240;2023-11-21T14:25:18;71.73;;;44.27;;
18338;SDS011;9295;44.484;11.240;2023-11-21T14:27:49;79.97;;;47.40;;
18338;SDS011;9295;44.484;11.240;2023-11-21T14:30:18;75.80;;;47.07;;
18338;SDS011;9295;44.484;11.240;2023-11-21T14:32:49;74.10;;;45.63;;
18338;SDS011;9295;44.484;11.240;2023-11-21T14:35:20;80.70;;;47.37;;
18338;SDS011;9295;44.484;11.240;2023-11-21T14:37:51;74.40;;;48.83;;
18338;SDS011;9295;44.484;11.240;2023-11-21T14:40:25;83.73;;;53.90;;
18338;SDS011;9295;44.484;11.240;2023-11-21T14:43:01;76.70;;;50.80;;
18338;SDS011;9295;44.484;11.240;2023-11-21T14:45:32;80.63;;;48.70;;
18338;SDS011;9295;44.484;11.240;2023-11-21T14:48:04;80.43;;;47.97;;
18338;SDS011;9295;44.484;11.240;2023-11-21T14:50:43;70.37;;;45.97;;
18338;SDS011;9295;44.484;11.240;2023-11-21T14:53:38;70.57;;;46.80;;
18338;SDS011;9295;44.484;11.240;2023-11-21T14:56:10;71.33;;;45.90;;
18338;SDS011;9295;44.484;11.240;2023-11-21T14:58:49;74.30;;;45.87;;
18338;SDS011;9295;44.484;11.240;2023-11-21T15:01:18;75.43;;;48.53;;
18338;SDS011;9295;44.484;11.240;2023-11-21T15:03:57;82.13;;;50.53;;
18338;SDS011;9295;44.484;11.240;2023-11-21T15:06:26;82.37;;;49.70;;
18338;SDS011;9295;44.484;11.240;2023-11-21T15:08:57;79.47;;;49.00;;
18338;SDS011;9295;44.484;11.240;2023-11-21T15:11:40;73.37;;;46.70;;
18338;SDS011;9295;44.484;11.240;2023-11-21T15:14:10;76.93;;;48.37;;